createdAt,value
2018-02-21T00:00:41.064Z,1018.14
2018-02-21T00:01:40.982Z,1018.17
2018-02-21T00:02:40.892Z,1018.17
2018-02-21T00:03:40.803Z,1018.17
2018-02-21T00:04:40.720Z,1018.18
2018-02-21T00:05:40.642Z,1018.16
2018-02-21T00:06:40.554Z,1018.17
2018-02-21T00:07:40.469Z,1018.19
2018-02-21T00:08:40.374Z,1018.16
2018-02-21T00:09:40.294Z,1018.19
2018-02-21T00:10:40.214Z,1018.22
2018-02-21T00:11:40.128Z,1018.21
2018-02-21T00:12:40.048Z,1018.24
2018-02-21T00:13:39.955Z,1018.25
2018-02-21T00:14:39.873Z,1018.23
2018-02-21T00:15:39.794Z,1018.25
2018-02-21T00:16:39.718Z,1018.27
2018-02-21T00:17:39.625Z,1018.29
2018-02-21T00:18:39.531Z,1018.30
2018-02-21T00:19:39.441Z,1018.31
2018-02-21T00:20:39.367Z,1018.31
2018-02-21T00:21:39.266Z,1018.33
2018-02-21T00:22:39.200Z,1018.30
2018-02-21T00:23:39.109Z,1018.31
2018-02-21T00:24:39.019Z,1018.32
2018-02-21T00:25:38.931Z,1018.34
2018-02-21T00:26:38.839Z,1018.29
2018-02-21T00:27:38.763Z,1018.34
2018-02-21T00:28:38.682Z,1018.30
2018-02-21T00:29:38.592Z,1018.31
2018-02-21T00:30:38.507Z,1018.31
2018-02-21T00:31:38.432Z,1018.29
2018-02-21T00:32:38.334Z,1018.30
2018-02-21T00:33:38.249Z,1018.27
2018-02-21T00:34:38.169Z,1018.29
2018-02-21T00:35:38.095Z,1018.24
2018-02-21T00:36:37.997Z,1018.28
2018-02-21T00:37:37.909Z,1018.33
2018-02-21T00:38:37.838Z,1018.32
2018-02-21T00:39:37.748Z,1018.34
2018-02-21T00:40:37.665Z,1018.34
2018-02-21T00:41:37.575Z,1018.34
2018-02-21T00:42:37.483Z,1018.37
2018-02-21T00:43:37.392Z,1018.36
2018-02-21T00:44:37.315Z,1018.38
2018-02-21T00:45:37.235Z,1018.35
2018-02-21T00:46:37.148Z,1018.37
2018-02-21T00:47:37.072Z,1018.39
2018-02-21T00:48:36.969Z,1018.40
2018-02-21T00:49:36.888Z,1018.44
2018-02-21T00:50:36.792Z,1018.45
2018-02-21T00:51:36.716Z,1018.42
2018-02-21T00:52:36.641Z,1018.43
2018-02-21T00:53:36.543Z,1018.43
2018-02-21T00:54:36.473Z,1018.42
2018-02-21T00:55:36.377Z,1018.39
2018-02-21T00:56:36.283Z,1018.43
2018-02-21T00:57:36.214Z,1018.42
2018-02-21T00:58:36.117Z,1018.43
2018-02-21T00:59:36.047Z,1018.40
2018-02-21T01:00:35.948Z,1018.41
2018-02-21T01:01:35.861Z,1018.39
2018-02-21T01:02:35.775Z,1018.40
2018-02-21T01:03:35.702Z,1018.38
2018-02-21T01:04:35.621Z,1018.40
2018-02-21T01:05:35.526Z,1018.42
2018-02-21T01:06:35.441Z,1018.41
2018-02-21T01:07:35.343Z,1018.38
2018-02-21T01:08:35.267Z,1018.39
2018-02-21T01:09:35.172Z,1018.41
2018-02-21T01:10:35.100Z,1018.42
2018-02-21T01:11:35.014Z,1018.39
2018-02-21T01:12:34.920Z,1018.38
2018-02-21T01:13:34.851Z,1018.39
2018-02-21T01:14:34.745Z,1018.39
2018-02-21T01:15:34.658Z,1018.41
2018-02-21T01:16:34.606Z,1018.38
2018-02-21T01:17:34.494Z,1018.41
2018-02-21T01:18:34.411Z,1018.43
2018-02-21T01:19:34.323Z,1018.50
2018-02-21T01:20:34.244Z,1018.45
2018-02-21T01:21:34.153Z,1018.45
2018-02-21T01:22:34.072Z,1018.48
2018-02-21T01:23:34.000Z,1018.48
2018-02-21T01:24:33.903Z,1018.47
2018-02-21T01:25:33.825Z,1018.48
2018-02-21T01:26:33.724Z,1018.47
2018-02-21T01:27:33.649Z,1018.49
2018-02-21T01:28:33.548Z,1018.53
2018-02-21T01:29:33.481Z,1018.53
2018-02-21T01:30:33.389Z,1018.54
2018-02-21T01:31:33.298Z,1018.51
2018-02-21T01:32:33.229Z,1018.56
2018-02-21T01:33:33.125Z,1018.55
2018-02-21T01:34:33.054Z,1018.50
2018-02-21T01:35:32.956Z,1018.52
2018-02-21T01:36:32.874Z,1018.54
2018-02-21T01:37:32.795Z,1018.52
2018-02-21T01:38:32.700Z,1018.54
2018-02-21T01:39:32.609Z,1018.56
2018-02-21T01:40:32.527Z,1018.49
2018-02-21T01:41:32.450Z,1018.53
2018-02-21T01:42:32.370Z,1018.48
2018-02-21T01:43:32.280Z,1018.52
2018-02-21T01:44:32.188Z,1018.52
2018-02-21T01:45:32.107Z,1018.54
2018-02-21T01:46:32.022Z,1018.52
2018-02-21T01:47:31.922Z,1018.53
2018-02-21T01:48:31.851Z,1018.54
2018-02-21T01:49:31.772Z,1018.54
2018-02-21T01:50:31.680Z,1018.56
2018-02-21T01:51:31.598Z,1018.58
2018-02-21T01:52:31.498Z,1018.55
2018-02-21T01:53:31.419Z,1018.60
2018-02-21T01:54:31.327Z,1018.58
2018-02-21T01:55:31.251Z,1018.57
2018-02-21T01:56:31.168Z,1018.58
2018-02-21T01:57:31.074Z,1018.56
2018-02-21T01:58:31.002Z,1018.60
2018-02-21T01:59:30.903Z,1018.57
2018-02-21T02:00:30.811Z,1018.60
2018-02-21T02:01:30.732Z,1018.59
2018-02-21T02:02:30.655Z,1018.62
2018-02-21T02:03:30.575Z,1018.63
2018-02-21T02:04:30.484Z,1018.63
2018-02-21T02:05:30.394Z,1018.68
2018-02-21T02:06:30.302Z,1018.70
2018-02-21T02:07:30.226Z,1018.69
2018-02-21T02:08:30.136Z,1018.73
2018-02-21T02:09:30.054Z,1018.72
2018-02-21T02:10:29.968Z,1018.73
2018-02-21T02:11:29.885Z,1018.74
2018-02-21T02:12:29.789Z,1018.72
2018-02-21T02:13:29.707Z,1018.75
2018-02-21T02:14:29.628Z,1018.73
2018-02-21T02:15:29.528Z,1018.75
2018-02-21T02:16:29.466Z,1018.74
2018-02-21T02:17:29.363Z,1018.74
2018-02-21T02:18:29.279Z,1018.73
2018-02-21T02:19:29.193Z,1018.74
2018-02-21T02:20:29.101Z,1018.75
2018-02-21T02:21:29.043Z,1018.76
2018-02-21T02:22:28.928Z,1018.76
2018-02-21T02:23:28.851Z,1018.76
2018-02-21T02:24:28.773Z,1018.76
2018-02-21T02:25:28.678Z,1018.76
2018-02-21T02:26:28.600Z,1018.79
2018-02-21T02:27:28.509Z,1018.81
2018-02-21T02:28:28.434Z,1018.81
2018-02-21T02:29:28.357Z,1018.84
2018-02-21T02:30:28.257Z,1018.82
2018-02-21T02:31:28.166Z,1018.84
2018-02-21T02:32:28.085Z,1018.83
2018-02-21T02:33:27.997Z,1018.82
2018-02-21T02:34:27.908Z,1018.85
2018-02-21T02:35:27.824Z,1018.86
2018-02-21T02:36:27.758Z,1018.82
2018-02-21T02:37:27.663Z,1018.88
2018-02-21T02:38:27.569Z,1018.82
2018-02-21T02:39:27.480Z,1018.85
2018-02-21T02:40:27.399Z,1018.82
2018-02-21T02:41:27.309Z,1018.85
2018-02-21T02:42:27.221Z,1018.86
2018-02-21T02:43:27.136Z,1018.84
2018-02-21T02:44:27.053Z,1018.88
2018-02-21T02:45:26.978Z,1018.86
2018-02-21T02:46:26.881Z,1018.84
2018-02-21T02:47:26.795Z,1018.81
2018-02-21T02:48:26.710Z,1018.81
2018-02-21T02:49:26.622Z,1018.83
2018-02-21T02:50:26.536Z,1018.80
2018-02-21T02:51:26.459Z,1018.80
2018-02-21T02:52:26.385Z,1018.82
2018-02-21T02:53:26.284Z,1018.79
2018-02-21T02:54:26.199Z,1018.78
2018-02-21T02:55:26.108Z,1018.76
2018-02-21T02:56:26.040Z,1018.80
2018-02-21T02:57:25.959Z,1018.80
2018-02-21T02:58:25.863Z,1018.76
2018-02-21T02:59:25.775Z,1018.84
2018-02-21T03:00:25.686Z,1018.79
2018-02-21T03:01:25.608Z,1018.82
2018-02-21T03:02:25.506Z,1018.83
2018-02-21T03:03:25.431Z,1018.79
2018-02-21T03:04:25.345Z,1018.79
2018-02-21T03:05:25.258Z,1018.76
2018-02-21T03:06:25.177Z,1018.80
2018-02-21T03:07:25.087Z,1018.73
2018-02-21T03:08:25.012Z,1018.72
2018-02-21T03:09:24.910Z,1018.75
2018-02-21T03:10:24.837Z,1018.74
2018-02-21T03:11:24.738Z,1018.74
2018-02-21T03:12:24.661Z,1018.75
2018-02-21T03:13:24.574Z,1018.76
2018-02-21T03:14:24.490Z,1018.76
2018-02-21T03:15:24.405Z,1018.79
2018-02-21T03:16:24.310Z,1018.81
2018-02-21T03:17:24.240Z,1018.80
2018-02-21T03:18:24.134Z,1018.81
2018-02-21T03:19:24.061Z,1018.85
2018-02-21T03:20:23.975Z,1018.81
2018-02-21T03:21:23.888Z,1018.91
2018-02-21T03:22:23.803Z,1018.87
2018-02-21T03:23:23.718Z,1018.90
2018-02-21T03:24:23.637Z,1018.92
2018-02-21T03:25:23.540Z,1018.92
2018-02-21T03:26:23.460Z,1018.95
2018-02-21T03:27:23.389Z,1018.96
2018-02-21T03:28:23.291Z,1018.96
2018-02-21T03:29:23.196Z,1018.95
2018-02-21T03:30:23.121Z,1018.94
2018-02-21T03:31:23.027Z,1018.89
2018-02-21T03:32:22.934Z,1018.90
2018-02-21T03:33:22.869Z,1018.90
2018-02-21T03:34:22.774Z,1018.89
2018-02-21T03:35:22.690Z,1018.89
2018-02-21T03:36:22.610Z,1018.89
2018-02-21T03:37:22.514Z,1018.90
2018-02-21T03:38:22.428Z,1018.90
2018-02-21T03:39:22.343Z,1018.88
2018-02-21T03:40:22.259Z,1018.87
2018-02-21T03:41:22.188Z,1018.87
2018-02-21T03:42:22.089Z,1018.91
2018-02-21T03:43:22.011Z,1018.87
2018-02-21T03:44:21.923Z,1018.87
2018-02-21T03:45:21.839Z,1018.88
2018-02-21T03:46:21.741Z,1018.86
2018-02-21T03:47:21.657Z,1018.82
2018-02-21T03:48:21.576Z,1018.83
2018-02-21T03:49:21.491Z,1018.80
2018-02-21T03:50:21.413Z,1018.78
2018-02-21T03:51:21.314Z,1018.76
2018-02-21T03:52:21.233Z,1018.76
2018-02-21T03:53:21.139Z,1018.75
2018-02-21T03:54:21.061Z,1018.65
2018-02-21T03:55:20.970Z,1018.70
2018-02-21T03:56:20.888Z,1018.69
2018-02-21T03:57:20.806Z,1018.65
2018-02-21T03:58:20.713Z,1018.62
2018-02-21T03:59:20.629Z,1018.63
2018-02-21T04:00:20.543Z,1018.58
2018-02-21T04:01:20.450Z,1018.60
2018-02-21T04:02:20.368Z,1018.59
2018-02-21T04:03:20.299Z,1018.59
2018-02-21T04:04:20.246Z,1018.56
2018-02-21T04:05:20.119Z,1018.58
2018-02-21T04:06:20.028Z,1018.54
2018-02-21T04:07:19.939Z,1018.59
2018-02-21T04:08:19.873Z,1018.57
2018-02-21T04:09:19.764Z,1018.62
2018-02-21T04:10:19.695Z,1018.65
2018-02-21T04:11:19.605Z,1018.65
2018-02-21T04:12:19.513Z,1018.66
2018-02-21T04:13:19.430Z,1018.64
2018-02-21T04:14:19.349Z,1018.67
2018-02-21T04:15:19.269Z,1018.67
2018-02-21T04:16:19.169Z,1018.65
2018-02-21T04:17:19.098Z,1018.71
2018-02-21T04:18:19.005Z,1018.65
2018-02-21T04:19:18.919Z,1018.60
2018-02-21T04:20:18.831Z,1018.62
2018-02-21T04:21:18.741Z,1018.61
2018-02-21T04:22:18.669Z,1018.59
2018-02-21T04:23:18.570Z,1018.65
2018-02-21T04:24:18.479Z,1018.64
2018-02-21T04:25:18.403Z,1018.68
2018-02-21T04:26:18.315Z,1018.71
2018-02-21T04:27:18.228Z,1018.72
2018-02-21T04:28:18.145Z,1018.74
2018-02-21T04:29:18.067Z,1018.79
2018-02-21T04:30:17.973Z,1018.80
2018-02-21T04:31:17.889Z,1018.78
2018-02-21T04:32:17.797Z,1018.77
2018-02-21T04:33:17.721Z,1018.79
2018-02-21T04:34:17.671Z,1018.81
2018-02-21T04:35:17.542Z,1018.79
2018-02-21T04:36:17.472Z,1018.78
2018-02-21T04:37:17.370Z,1018.75
2018-02-21T04:38:17.287Z,1018.76
2018-02-21T04:39:17.198Z,1018.74
2018-02-21T04:40:17.106Z,1018.75
2018-02-21T04:41:17.024Z,1018.77
2018-02-21T04:42:16.944Z,1018.77
2018-02-21T04:43:16.860Z,1018.75
2018-02-21T04:44:16.777Z,1018.77
2018-02-21T04:45:16.694Z,1018.79
2018-02-21T04:46:16.600Z,1018.77
2018-02-21T04:47:16.516Z,1018.79
2018-02-21T04:48:16.420Z,1018.75
2018-02-21T04:49:16.346Z,1018.77
2018-02-21T04:50:16.255Z,1018.80
2018-02-21T04:51:16.167Z,1018.85
2018-02-21T04:52:16.091Z,1018.86
2018-02-21T04:53:15.994Z,1018.88
2018-02-21T04:54:15.923Z,1018.85
2018-02-21T04:55:15.828Z,1018.88
2018-02-21T04:56:15.735Z,1018.90
2018-02-21T04:57:15.653Z,1018.87
2018-02-21T04:58:15.568Z,1018.92
2018-02-21T04:59:15.485Z,1018.89
2018-02-21T05:00:15.403Z,1018.94
2018-02-21T05:01:15.323Z,1018.90
2018-02-21T05:02:15.222Z,1018.96
2018-02-21T05:03:15.138Z,1018.98
2018-02-21T05:04:15.058Z,1018.96
2018-02-21T05:05:14.974Z,1018.94
2018-02-21T05:06:14.884Z,1018.99
2018-02-21T05:07:14.796Z,1018.89
2018-02-21T05:08:14.713Z,1018.93
2018-02-21T05:09:14.619Z,1018.89
2018-02-21T05:10:14.543Z,1018.88
2018-02-21T05:11:14.461Z,1018.89
2018-02-21T05:12:14.359Z,1018.90
2018-02-21T05:13:14.281Z,1018.92
2018-02-21T05:14:14.198Z,1018.94
2018-02-21T05:15:14.114Z,1018.94
2018-02-21T05:16:14.027Z,1019.01
2018-02-21T05:17:13.939Z,1019.03
2018-02-21T05:18:13.849Z,1019.08
2018-02-21T05:19:13.764Z,1019.02
2018-02-21T05:20:13.670Z,1019.07
2018-02-21T05:21:13.601Z,1019.03
2018-02-21T05:22:13.506Z,1019.09
2018-02-21T05:23:13.423Z,1019.14
2018-02-21T05:24:13.342Z,1019.13
2018-02-21T05:25:13.246Z,1019.17
2018-02-21T05:26:13.170Z,1019.23
2018-02-21T05:27:13.075Z,1019.25
2018-02-21T05:28:13.000Z,1019.29
2018-02-21T05:29:12.908Z,1019.28
2018-02-21T05:30:12.814Z,1019.27
2018-02-21T05:31:12.754Z,1019.26
2018-02-21T05:32:12.654Z,1019.22
2018-02-21T05:33:12.566Z,1019.21
2018-02-21T05:34:12.479Z,1019.21
2018-02-21T05:35:12.403Z,1019.20
2018-02-21T05:36:12.299Z,1019.19
2018-02-21T05:37:12.215Z,1019.21
2018-02-21T05:38:12.129Z,1019.23
2018-02-21T05:39:12.047Z,1019.22
2018-02-21T05:40:11.965Z,1019.28
2018-02-21T05:41:11.876Z,1019.28
2018-02-21T05:42:11.804Z,1019.30
2018-02-21T05:43:11.704Z,1019.33
2018-02-21T05:44:11.616Z,1019.37
2018-02-21T05:45:11.527Z,1019.34
2018-02-21T05:46:11.437Z,1019.38
2018-02-21T05:47:11.369Z,1019.39
2018-02-21T05:48:11.283Z,1019.44
2018-02-21T05:49:11.190Z,1019.38
2018-02-21T05:50:11.104Z,1019.41
2018-02-21T05:51:11.034Z,1019.43
2018-02-21T05:52:10.929Z,1019.45
2018-02-21T05:53:10.857Z,1019.46
2018-02-21T05:54:10.753Z,1019.45
2018-02-21T05:55:10.676Z,1019.45
2018-02-21T05:56:10.595Z,1019.48
2018-02-21T05:57:10.500Z,1019.46
2018-02-21T05:58:10.430Z,1019.50
2018-02-21T05:59:10.328Z,1019.51
2018-02-21T06:00:10.250Z,1019.55
2018-02-21T06:01:10.157Z,1019.53
2018-02-21T06:02:10.074Z,1019.53
2018-02-21T06:03:09.977Z,1019.51
2018-02-21T06:04:09.907Z,1019.55
2018-02-21T06:05:09.912Z,1019.53
2018-02-21T06:06:09.731Z,1019.57
2018-02-21T06:07:09.645Z,1019.56
2018-02-21T06:08:09.552Z,1019.60
2018-02-21T06:09:09.486Z,1019.58
2018-02-21T06:10:09.376Z,1019.59
2018-02-21T06:11:09.300Z,1019.61
2018-02-21T06:12:09.208Z,1019.56
2018-02-21T06:13:09.129Z,1019.57
2018-02-21T06:14:09.047Z,1019.60
2018-02-21T06:15:08.960Z,1019.59
2018-02-21T06:16:08.870Z,1019.60
2018-02-21T06:17:08.780Z,1019.60
2018-02-21T06:18:08.693Z,1019.58
2018-02-21T06:19:08.603Z,1019.60
2018-02-21T06:20:08.532Z,1019.60
2018-02-21T06:21:08.456Z,1019.58
2018-02-21T06:22:08.353Z,1019.55
2018-02-21T06:23:08.279Z,1019.53
2018-02-21T06:24:08.186Z,1019.55
2018-02-21T06:25:08.111Z,1019.51
2018-02-21T06:26:08.013Z,1019.53
2018-02-21T06:27:07.933Z,1019.52
2018-02-21T06:28:07.836Z,1019.51
2018-02-21T06:29:07.765Z,1019.48
2018-02-21T06:30:07.670Z,1019.47
2018-02-21T06:31:07.584Z,1019.47
2018-02-21T06:32:07.544Z,1019.51
2018-02-21T06:33:07.405Z,1019.50
2018-02-21T06:34:07.335Z,1019.47
2018-02-21T06:35:07.241Z,1019.49
2018-02-21T06:36:07.160Z,1019.52
2018-02-21T06:37:07.073Z,1019.45
2018-02-21T06:38:06.980Z,1019.46
2018-02-21T06:39:06.896Z,1019.48
2018-02-21T06:40:06.811Z,1019.45
2018-02-21T06:41:06.729Z,1019.50
2018-02-21T06:42:06.637Z,1019.47
2018-02-21T06:43:06.547Z,1019.48
2018-02-21T06:44:06.469Z,1019.46
2018-02-21T06:45:06.386Z,1019.49
2018-02-21T06:46:06.308Z,1019.52
2018-02-21T06:47:06.209Z,1019.51
2018-02-21T06:48:06.136Z,1019.54
2018-02-21T06:49:06.088Z,1019.55
2018-02-21T06:50:05.952Z,1019.57
2018-02-21T06:51:05.865Z,1019.57
2018-02-21T06:52:05.781Z,1019.59
2018-02-21T06:53:05.699Z,1019.62
2018-02-21T06:54:05.614Z,1019.66
2018-02-21T06:55:05.519Z,1019.70
2018-02-21T06:56:05.441Z,1019.70
2018-02-21T06:57:05.351Z,1019.75
2018-02-21T06:58:05.263Z,1019.76
2018-02-21T06:59:05.192Z,1019.76
2018-02-21T07:00:05.098Z,1019.77
2018-02-21T07:01:05.013Z,1019.78
2018-02-21T07:02:04.926Z,1019.80
2018-02-21T07:03:04.831Z,1019.80
2018-02-21T07:04:04.749Z,1019.76
2018-02-21T07:05:04.664Z,1019.76
2018-02-21T07:06:04.591Z,1019.82
2018-02-21T07:07:04.502Z,1019.81
2018-02-21T07:08:04.409Z,1019.81
2018-02-21T07:09:04.326Z,1019.83
2018-02-21T07:10:04.249Z,1019.83
2018-02-21T07:11:04.147Z,1019.85
2018-02-21T07:12:04.079Z,1019.84
2018-02-21T07:13:03.982Z,1019.84
2018-02-21T07:14:03.900Z,1019.87
2018-02-21T07:15:03.812Z,1019.88
2018-02-21T07:16:03.737Z,1019.86
2018-02-21T07:17:03.642Z,1019.90
2018-02-21T07:18:03.560Z,1019.91
2018-02-21T07:19:03.477Z,1019.86
2018-02-21T07:20:03.392Z,1019.87
2018-02-21T07:21:03.310Z,1019.82
2018-02-21T07:22:03.213Z,1019.86
2018-02-21T07:23:03.139Z,1019.87
2018-02-21T07:24:03.049Z,1019.88
2018-02-21T07:25:02.964Z,1019.94
2018-02-21T07:26:02.874Z,1019.90
2018-02-21T07:27:02.790Z,1019.91
2018-02-21T07:28:02.705Z,1019.94
2018-02-21T07:29:02.638Z,1019.92
2018-02-21T07:30:02.540Z,1019.96
2018-02-21T07:31:02.468Z,1019.99
2018-02-21T07:32:02.360Z,1020.01
2018-02-21T07:33:02.295Z,1019.96
2018-02-21T07:34:02.190Z,1019.98
2018-02-21T07:35:02.113Z,1019.98
2018-02-21T07:36:02.031Z,1020.02
2018-02-21T07:37:01.939Z,1019.98
2018-02-21T07:38:01.872Z,1020.06
2018-02-21T07:39:01.772Z,1020.03
2018-02-21T07:40:01.685Z,1020.04
2018-02-21T07:41:01.608Z,1020.06
2018-02-21T07:42:01.518Z,1020.08
2018-02-21T07:43:01.430Z,1020.04
2018-02-21T07:44:01.342Z,1020.04
2018-02-21T07:45:01.264Z,1020.03
2018-02-21T07:46:01.184Z,1020.06
2018-02-21T07:47:01.093Z,1020.10
2018-02-21T07:48:01.003Z,1020.07
2018-02-21T07:49:00.939Z,1020.07
2018-02-21T07:50:00.836Z,1020.07
2018-02-21T07:51:00.757Z,1020.07
2018-02-21T07:52:00.674Z,1020.11
2018-02-21T07:53:00.582Z,1020.15
2018-02-21T07:54:00.507Z,1020.15
2018-02-21T07:55:00.419Z,1020.12
2018-02-21T07:56:00.339Z,1020.19
2018-02-21T07:57:00.243Z,1020.18
2018-02-21T07:58:00.168Z,1020.16
2018-02-21T07:59:00.083Z,1020.17
2018-02-21T07:59:59.994Z,1020.14
2018-02-21T08:00:59.937Z,1020.15
2018-02-21T08:01:59.821Z,1020.16
2018-02-21T08:02:59.764Z,1020.14
2018-02-21T08:03:59.667Z,1020.13
2018-02-21T08:04:59.615Z,1020.12
2018-02-21T08:05:59.494Z,1020.09
2018-02-21T08:06:59.405Z,1020.07
2018-02-21T08:07:59.319Z,1020.06
2018-02-21T08:08:59.244Z,1020.07
2018-02-21T08:09:59.179Z,1020.05
2018-02-21T08:10:59.216Z,1020.07
2018-02-21T08:11:59.130Z,1020.10
2018-02-21T08:12:59.007Z,1020.13
2018-02-21T08:13:59.143Z,1020.18
2018-02-21T08:14:58.858Z,1020.13
2018-02-21T08:15:58.643Z,1020.18
2018-02-21T08:16:58.706Z,1020.17
2018-02-21T08:17:58.509Z,1020.20
2018-02-21T08:18:58.511Z,1020.19
2018-02-21T08:19:58.629Z,1020.24
2018-02-21T08:20:58.298Z,1020.24
2018-02-21T08:21:58.154Z,1020.23
2018-02-21T08:22:58.110Z,1020.21
2018-02-21T08:23:58.211Z,1020.25
2018-02-21T08:24:57.931Z,1020.18
2018-02-21T08:25:57.819Z,1020.18
2018-02-21T08:26:57.724Z,1020.20
2018-02-21T08:27:57.631Z,1020.19
2018-02-21T08:28:57.544Z,1020.23
2018-02-21T08:29:57.472Z,1020.25
2018-02-21T08:30:57.388Z,1020.26
2018-02-21T08:31:57.295Z,1020.26
2018-02-21T08:32:57.220Z,1020.30
2018-02-21T08:33:57.129Z,1020.31
2018-02-21T08:34:57.043Z,1020.32
2018-02-21T08:35:56.959Z,1020.28
2018-02-21T08:36:56.894Z,1020.33
2018-02-21T08:37:56.798Z,1020.34
2018-02-21T08:38:56.727Z,1020.37
2018-02-21T08:39:56.634Z,1020.39
2018-02-21T08:40:56.552Z,1020.41
2018-02-21T08:41:56.456Z,1020.45
2018-02-21T08:42:56.645Z,1020.45
2018-02-21T08:43:56.304Z,1020.45
2018-02-21T08:44:56.219Z,1020.50
2018-02-21T08:45:56.185Z,1020.53
2018-02-21T08:46:56.050Z,1020.56
2018-02-21T08:47:55.968Z,1020.56
2018-02-21T08:48:55.893Z,1020.53
2018-02-21T08:49:55.799Z,1020.55
2018-02-21T08:50:55.721Z,1020.59
2018-02-21T08:51:55.639Z,1020.58
2018-02-21T08:52:55.556Z,1020.57
2018-02-21T08:53:55.473Z,1020.60
2018-02-21T08:54:55.402Z,1020.61
2018-02-21T08:55:55.319Z,1020.59
2018-02-21T08:56:55.243Z,1020.59
2018-02-21T08:57:55.176Z,1020.65
2018-02-21T08:58:55.061Z,1020.61
2018-02-21T08:59:54.991Z,1020.67
2018-02-21T09:00:54.896Z,1020.65
2018-02-21T09:01:54.825Z,1020.64
2018-02-21T09:02:54.742Z,1020.63
2018-02-21T09:03:54.661Z,1020.62
2018-02-21T09:04:54.579Z,1020.58
2018-02-21T09:05:54.495Z,1020.61
2018-02-21T09:06:54.415Z,1020.64
2018-02-21T09:07:54.325Z,1020.61
2018-02-21T09:08:54.247Z,1020.62
2018-02-21T09:09:54.165Z,1020.60
2018-02-21T09:10:54.093Z,1020.58
2018-02-21T09:11:54.011Z,1020.59
2018-02-21T09:12:53.932Z,1020.57
2018-02-21T09:13:53.841Z,1020.58
2018-02-21T09:14:53.765Z,1020.53
2018-02-21T09:15:53.676Z,1020.51
2018-02-21T09:16:53.595Z,1020.54
2018-02-21T09:17:53.520Z,1020.52
2018-02-21T09:18:53.433Z,1020.50
2018-02-21T09:19:53.346Z,1020.50
2018-02-21T09:20:53.282Z,1020.45
2018-02-21T09:21:53.191Z,1020.47
2018-02-21T09:22:53.100Z,1020.47
2018-02-21T09:23:53.028Z,1020.47
2018-02-21T09:24:52.946Z,1020.44
2018-02-21T09:25:52.877Z,1020.41
2018-02-21T09:26:52.784Z,1020.40
2018-02-21T09:27:52.698Z,1020.37
2018-02-21T09:28:52.632Z,1020.39
2018-02-21T09:29:52.538Z,1020.39
2018-02-21T09:30:52.454Z,1020.37
2018-02-21T09:31:52.380Z,1020.37
2018-02-21T09:32:52.299Z,1020.41
2018-02-21T09:33:52.227Z,1020.43
2018-02-21T09:34:52.148Z,1020.39
2018-02-21T09:35:52.052Z,1020.41
2018-02-21T09:36:51.982Z,1020.39
2018-02-21T09:37:51.900Z,1020.41
2018-02-21T09:38:51.817Z,1020.37
2018-02-21T09:39:51.735Z,1020.37
2018-02-21T09:40:51.655Z,1020.39
2018-02-21T09:41:51.578Z,1020.40
2018-02-21T09:42:51.503Z,1020.40
2018-02-21T09:43:51.400Z,1020.37
2018-02-21T09:44:51.336Z,1020.36
2018-02-21T09:45:51.240Z,1020.39
2018-02-21T09:46:51.170Z,1020.36
2018-02-21T09:47:51.081Z,1020.40
2018-02-21T09:48:51.002Z,1020.39
2018-02-21T09:49:50.933Z,1020.39
2018-02-21T09:50:50.858Z,1020.42
2018-02-21T09:51:50.756Z,1020.41
2018-02-21T09:52:50.679Z,1020.40
2018-02-21T09:53:50.604Z,1020.42
2018-02-21T09:54:50.522Z,1020.43
2018-02-21T09:55:50.434Z,1020.46
2018-02-21T09:56:50.352Z,1020.45
2018-02-21T09:57:50.275Z,1020.49
2018-02-21T09:58:50.208Z,1020.47
2018-02-21T09:59:50.107Z,1020.42
2018-02-21T10:00:50.033Z,1020.43
2018-02-21T10:01:49.940Z,1020.41
2018-02-21T10:02:49.853Z,1020.41
2018-02-21T10:03:49.784Z,1020.45
2018-02-21T10:04:49.690Z,1020.45
2018-02-21T10:05:49.634Z,1020.47
2018-02-21T10:06:49.532Z,1020.44
2018-02-21T10:07:49.451Z,1020.47
2018-02-21T10:08:49.376Z,1020.49
2018-02-21T10:09:49.297Z,1020.48
2018-02-21T10:10:49.204Z,1020.49
2018-02-21T10:11:49.134Z,1020.50
2018-02-21T10:12:49.045Z,1020.46
2018-02-21T10:13:48.958Z,1020.46
2018-02-21T10:14:48.886Z,1020.47
2018-02-21T10:15:48.797Z,1020.45
2018-02-21T10:16:48.723Z,1020.42
2018-02-21T10:17:48.632Z,1020.40
2018-02-21T10:18:48.555Z,1020.43
2018-02-21T10:19:48.475Z,1020.38
2018-02-21T10:20:48.394Z,1020.37
2018-02-21T10:21:48.309Z,1020.36
2018-02-21T10:22:48.236Z,1020.35
2018-02-21T10:23:48.144Z,1020.36
2018-02-21T10:24:48.071Z,1020.39
2018-02-21T10:25:47.979Z,1020.38
2018-02-21T10:26:47.914Z,1020.41
2018-02-21T10:27:47.827Z,1020.39
2018-02-21T10:28:47.749Z,1020.41
2018-02-21T10:29:47.661Z,1020.34
2018-02-21T10:30:47.585Z,1020.32
2018-02-21T10:31:47.495Z,1020.30
2018-02-21T10:32:47.427Z,1020.30
2018-02-21T10:33:47.337Z,1020.27
2018-02-21T10:34:47.259Z,1020.25
2018-02-21T10:35:47.183Z,1020.32
2018-02-21T10:36:47.113Z,1020.35
2018-02-21T10:37:47.011Z,1020.32
2018-02-21T10:38:46.930Z,1020.35
2018-02-21T10:39:46.859Z,1020.35
2018-02-21T10:40:46.786Z,1020.32
2018-02-21T10:41:46.686Z,1020.32
2018-02-21T10:42:46.616Z,1020.25
2018-02-21T10:43:46.521Z,1020.26
2018-02-21T10:44:46.455Z,1020.35
2018-02-21T10:45:46.357Z,1020.31
2018-02-21T10:46:46.284Z,1020.31
2018-02-21T10:47:46.217Z,1020.27
2018-02-21T10:48:46.153Z,1020.32
2018-02-21T10:49:46.039Z,1020.36
2018-02-21T10:50:45.968Z,1020.34
2018-02-21T10:51:45.885Z,1020.30
2018-02-21T10:52:45.814Z,1020.27
2018-02-21T10:53:45.723Z,1020.27
2018-02-21T10:54:45.638Z,1020.23
2018-02-21T10:55:45.564Z,1020.24
2018-02-21T10:56:45.471Z,1020.27
2018-02-21T10:57:45.419Z,1020.29
2018-02-21T10:58:45.314Z,1020.26
2018-02-21T10:59:45.233Z,1020.30
2018-02-21T11:00:45.164Z,1020.27
2018-02-21T11:01:45.075Z,1020.27
2018-02-21T11:02:45.010Z,1020.35
2018-02-21T11:03:44.917Z,1020.32
2018-02-21T11:04:44.834Z,1020.30
2018-02-21T11:05:44.762Z,1020.36
2018-02-21T11:06:44.681Z,1020.34
2018-02-21T11:07:44.777Z,1020.34
2018-02-21T11:08:44.514Z,1020.39
2018-02-21T11:09:44.438Z,1020.45
2018-02-21T11:10:44.354Z,1020.45
2018-02-21T11:11:44.281Z,1020.41
2018-02-21T11:12:44.211Z,1020.41
2018-02-21T11:13:44.118Z,1020.33
2018-02-21T11:14:44.041Z,1020.31
2018-02-21T11:15:43.961Z,1020.33
2018-02-21T11:16:43.878Z,1020.36
2018-02-21T11:17:43.810Z,1020.34
2018-02-21T11:18:43.709Z,1020.33
2018-02-21T11:19:43.638Z,1020.33
2018-02-21T11:20:43.563Z,1020.32
2018-02-21T11:21:43.491Z,1020.29
2018-02-21T11:22:43.418Z,1020.29
2018-02-21T11:23:43.336Z,1020.31
2018-02-21T11:24:43.243Z,1020.33
2018-02-21T11:25:43.155Z,1020.32
2018-02-21T11:26:43.078Z,1020.31
2018-02-21T11:27:43.021Z,1020.30
2018-02-21T11:28:42.912Z,1020.29
2018-02-21T11:29:42.841Z,1020.30
2018-02-21T11:30:42.760Z,1020.28
2018-02-21T11:31:42.678Z,1020.31
2018-02-21T11:32:42.598Z,1020.31
2018-02-21T11:33:42.513Z,1020.31
2018-02-21T11:34:42.438Z,1020.34
2018-02-21T11:35:42.360Z,1020.31
2018-02-21T11:36:42.280Z,1020.31
2018-02-21T11:37:42.191Z,1020.29
2018-02-21T11:38:42.252Z,1020.29
2018-02-21T11:39:42.170Z,1020.45
2018-02-21T11:40:42.013Z,1020.37
2018-02-21T11:41:41.885Z,1020.42
2018-02-21T11:42:41.999Z,1020.42
2018-02-21T11:43:41.707Z,1020.44
2018-02-21T11:44:41.626Z,1020.41
2018-02-21T11:45:41.544Z,1020.40
2018-02-21T11:46:41.473Z,1020.48
2018-02-21T11:47:41.390Z,1020.46
2018-02-21T11:48:41.308Z,1020.39
2018-02-21T11:49:41.235Z,1020.44
2018-02-21T11:50:41.140Z,1020.34
2018-02-21T11:51:41.073Z,1020.31
2018-02-21T11:52:40.978Z,1020.42
2018-02-21T11:53:40.918Z,1020.38
2018-02-21T11:54:40.831Z,1020.46
2018-02-21T11:55:40.738Z,1020.45
2018-02-21T11:56:40.674Z,1020.41
2018-02-21T11:57:40.625Z,1020.44
2018-02-21T11:58:40.508Z,1020.39
2018-02-21T11:59:40.419Z,1020.35
2018-02-21T12:00:40.342Z,1020.35
2018-02-21T12:01:40.276Z,1020.31
2018-02-21T12:02:40.198Z,1020.36
2018-02-21T12:03:40.097Z,1020.34
2018-02-21T12:04:40.026Z,1020.34